createdAt,value
2023-02-25T00:01:26.437Z,37.25
2023-02-25T00:06:23.897Z,34.20
2023-02-25T00:11:22.111Z,33.80
2023-02-25T00:16:16.895Z,36.42
2023-02-25T00:18:46.138Z,35.50
2023-02-25T00:21:16.245Z,35.68
2023-02-25T00:23:48.891Z,31.12
2023-02-25T00:26:17.932Z,30.05
2023-02-25T00:28:47.869Z,30.50
2023-02-25T00:33:50.164Z,29.77
2023-02-25T00:38:51.238Z,31.73
2023-02-25T00:43:52.410Z,32.78
2023-02-25T00:46:21.281Z,31.70
2023-02-25T00:48:50.213Z,31.70
2023-02-25T00:51:22.022Z,30.70
2023-02-25T00:53:55.359Z,30.40
2023-02-25T00:56:25.679Z,32.20
2023-02-25T01:01:31.172Z,29.07
2023-02-25T01:03:59.992Z,28.85
2023-02-25T01:06:30.217Z,30.80
2023-02-25T01:08:59.638Z,28.42
2023-02-25T01:14:01.650Z,27.48
2023-02-25T01:19:02.016Z,27.15
2023-02-25T01:21:34.910Z,26.73
2023-02-25T01:24:13.683Z,28.10
2023-02-25T01:26:45.294Z,26.50
2023-02-25T01:29:17.668Z,27.00
2023-02-25T01:34:15.689Z,30.05
2023-02-25T01:39:10.641Z,30.35
2023-02-25T01:44:16.679Z,28.85
2023-02-25T01:46:48.592Z,27.17
2023-02-25T01:49:24.497Z,24.40
2023-02-25T01:51:56.567Z,24.45
2023-02-25T01:54:24.292Z,23.87
2023-02-25T01:56:55.422Z,24.30
2023-02-25T01:59:27.242Z,23.12
2023-02-25T02:04:22.121Z,23.05
2023-02-25T02:09:22.902Z,21.82
2023-02-25T02:11:51.588Z,21.68
2023-02-25T02:14:24.648Z,20.68
2023-02-25T02:17:24.688Z,19.80
2023-02-25T02:20:12.609Z,19.75
2023-02-25T02:25:52.318Z,19.42
2023-02-25T02:28:59.453Z,17.70
2023-02-25T02:31:50.680Z,17.25
2023-02-25T02:34:54.228Z,16.37
2023-02-25T02:40:29.917Z,18.55
2023-02-25T02:43:21.098Z,18.23
2023-02-25T02:46:25.225Z,16.48
2023-02-25T02:49:16.309Z,18.87
2023-02-25T02:52:01.819Z,19.02
2023-02-25T02:57:04.711Z,21.07
2023-02-25T03:02:03.994Z,20.85
2023-02-25T03:04:36.404Z,21.90
2023-02-25T03:07:07.964Z,21.80
2023-02-25T03:09:55.141Z,20.72
2023-02-25T03:12:24.609Z,23.47
2023-02-25T03:14:52.333Z,26.65
2023-02-25T03:17:25.094Z,25.52
2023-02-25T03:23:13.405Z,28.95
2023-02-25T03:25:49.229Z,28.85
2023-02-25T03:30:50.483Z,29.23
2023-02-25T03:36:33.275Z,29.05
2023-02-25T03:39:06.645Z,31.75
2023-02-25T03:41:38.889Z,30.10
2023-02-25T03:46:33.985Z,25.90
2023-02-25T03:51:35.140Z,23.87
2023-02-25T03:56:46.495Z,25.08
2023-02-25T03:59:15.370Z,23.87
2023-02-25T04:01:46.862Z,22.67
2023-02-25T04:04:15.382Z,21.82
2023-02-25T04:06:43.074Z,23.98
2023-02-25T04:09:10.987Z,21.23
2023-02-25T04:11:38.759Z,22.07
2023-02-25T04:14:06.695Z,22.15
2023-02-25T04:16:34.505Z,21.62
2023-02-25T04:19:02.898Z,22.27
2023-02-25T04:21:36.240Z,21.87
2023-02-25T04:24:06.300Z,21.05
2023-02-25T04:26:34.838Z,20.35
2023-02-25T04:29:03.503Z,22.10
2023-02-25T04:31:31.518Z,22.60
2023-02-25T04:33:59.449Z,22.55
2023-02-25T04:36:33.939Z,21.27
2023-02-25T04:39:05.073Z,22.93
2023-02-25T04:41:35.348Z,21.75
2023-02-25T04:44:04.721Z,21.80
2023-02-25T04:49:06.520Z,21.20
2023-02-25T04:51:34.656Z,22.95
2023-02-25T04:54:02.065Z,22.75
2023-02-25T04:56:29.881Z,22.85
2023-02-25T04:58:58.335Z,23.65
2023-02-25T05:01:26.357Z,25.12
2023-02-25T05:03:56.203Z,25.77
2023-02-25T05:06:28.391Z,26.00
2023-02-25T05:08:58.083Z,25.90
2023-02-25T05:11:29.893Z,21.10
2023-02-25T05:13:57.912Z,29.42
2023-02-25T05:16:26.982Z,24.43
2023-02-25T05:18:55.354Z,25.40
2023-02-25T05:21:25.894Z,25.60
2023-02-25T05:23:54.499Z,24.67
2023-02-25T05:26:25.068Z,24.57
2023-02-25T05:28:55.833Z,22.00
2023-02-25T05:31:25.584Z,21.15
2023-02-25T05:33:53.579Z,20.80
2023-02-25T05:36:21.489Z,22.62
2023-02-25T05:38:49.597Z,22.87
2023-02-25T05:41:17.186Z,24.75
2023-02-25T05:43:45.562Z,22.95
2023-02-25T05:46:14.557Z,22.50
2023-02-25T05:48:47.753Z,23.87
2023-02-25T05:51:18.759Z,24.47
2023-02-25T05:53:48.569Z,24.80
2023-02-25T05:56:21.940Z,26.97
2023-02-25T05:58:50.317Z,25.77
2023-02-25T06:01:22.305Z,26.52
2023-02-25T06:03:55.939Z,32.03
2023-02-25T06:06:29.620Z,25.75
2023-02-25T06:08:57.552Z,28.27
2023-02-25T06:11:29.709Z,31.27
2023-02-25T06:13:58.701Z,34.73
2023-02-25T06:16:44.035Z,41.60
2023-02-25T06:19:25.894Z,33.50
2023-02-25T06:21:56.060Z,33.45
2023-02-25T06:24:24.392Z,39.23
2023-02-25T06:26:52.303Z,43.02
2023-02-25T06:29:19.847Z,38.45
2023-02-25T06:31:50.666Z,36.20
2023-02-25T06:34:18.797Z,35.78
2023-02-25T06:36:46.741Z,35.40
2023-02-25T06:39:14.699Z,35.35
2023-02-25T06:41:42.502Z,34.18
2023-02-25T06:44:10.599Z,33.55
2023-02-25T06:46:38.345Z,33.25
2023-02-25T06:49:06.223Z,34.73
2023-02-25T06:51:36.296Z,35.13
2023-02-25T06:54:04.619Z,35.33
2023-02-25T06:56:32.405Z,45.85
2023-02-25T06:59:00.304Z,39.65
2023-02-25T07:01:28.264Z,38.40
2023-02-25T07:03:56.345Z,44.03
2023-02-25T07:06:24.621Z,43.02
2023-02-25T07:08:52.659Z,44.15
2023-02-25T07:11:28.502Z,46.68
2023-02-25T07:13:57.138Z,43.10
2023-02-25T07:16:25.554Z,44.53
2023-02-25T07:18:53.539Z,51.60
2023-02-25T07:21:22.569Z,48.60
2023-02-25T07:23:50.661Z,40.73
2023-02-25T07:26:18.473Z,42.55
2023-02-25T07:28:47.747Z,40.83
2023-02-25T07:31:19.093Z,38.75
2023-02-25T07:33:48.008Z,38.53
2023-02-25T07:36:16.154Z,35.20
2023-02-25T07:38:44.501Z,29.87
2023-02-25T07:41:16.606Z,38.45
2023-02-25T07:43:45.131Z,35.23
2023-02-25T07:46:13.276Z,43.80
2023-02-25T07:48:41.174Z,49.42
2023-02-25T07:51:16.678Z,47.35
2023-02-25T07:53:53.004Z,45.73
2023-02-25T07:56:22.939Z,38.48
2023-02-25T07:58:50.914Z,31.07
2023-02-25T08:01:25.929Z,26.17
2023-02-25T08:04:00.839Z,22.67
2023-02-25T08:06:28.828Z,19.62
2023-02-25T08:08:56.886Z,19.30
2023-02-25T08:11:27.078Z,19.27
2023-02-25T08:13:55.503Z,17.45
2023-02-25T08:16:23.207Z,18.12
2023-02-25T08:18:52.496Z,18.77
2023-02-25T08:21:23.230Z,19.52
2023-02-25T08:23:54.761Z,18.77
2023-02-25T08:26:25.018Z,20.02
2023-02-25T08:28:55.754Z,19.75
2023-02-25T08:31:23.956Z,19.00
2023-02-25T08:33:53.208Z,22.50
2023-02-25T08:36:26.245Z,21.77
2023-02-25T08:38:56.971Z,22.82
2023-02-25T08:41:27.101Z,21.62
2023-02-25T08:46:26.721Z,27.10
2023-02-25T08:51:24.233Z,24.10
2023-02-25T08:56:18.320Z,23.25
2023-02-25T08:58:46.243Z,23.83
2023-02-25T09:01:16.640Z,23.62
2023-02-25T09:03:53.638Z,26.70
2023-02-25T09:08:55.167Z,34.33
2023-02-25T09:13:52.980Z,35.48
2023-02-25T09:16:21.324Z,35.48
2023-02-25T09:18:51.059Z,34.43
2023-02-25T09:21:19.710Z,36.23
2023-02-25T09:23:47.875Z,42.40
2023-02-25T09:26:15.868Z,35.23
2023-02-25T09:28:44.115Z,34.95
2023-02-25T09:31:12.365Z,34.75
2023-02-25T09:33:42.225Z,34.60
2023-02-25T09:36:16.914Z,34.70
2023-02-25T09:38:46.930Z,32.93
2023-02-25T09:41:31.192Z,29.02
2023-02-25T09:44:07.860Z,34.95
2023-02-25T09:49:08.708Z,38.58
2023-02-25T09:51:40.766Z,43.92
2023-02-25T09:54:20.605Z,52.30
2023-02-25T09:56:49.985Z,45.00
2023-02-25T09:59:20.978Z,31.75
2023-02-25T10:01:56.963Z,26.02
2023-02-25T10:04:39.394Z,20.80
2023-02-25T10:07:25.086Z,19.20
2023-02-25T10:10:09.750Z,17.73
2023-02-25T10:15:57.534Z,13.18
2023-02-25T10:21:53.978Z,10.85
2023-02-25T10:24:48.497Z,10.63
2023-02-25T10:27:39.117Z,11.48
2023-02-25T10:30:32.337Z,14.13
2023-02-25T10:33:08.469Z,19.57
2023-02-25T10:35:39.493Z,17.52
2023-02-25T10:38:10.086Z,13.28
2023-02-25T10:46:25.016Z,8.73
2023-02-25T10:49:00.155Z,9.30
2023-02-25T10:54:00.008Z,11.38
2023-02-25T10:56:44.516Z,6.60
2023-02-25T11:01:43.537Z,6.00
2023-02-25T11:04:15.594Z,5.17
2023-02-25T11:06:44.411Z,5.45
2023-02-25T11:09:26.475Z,4.65
2023-02-25T11:12:11.407Z,3.60
2023-02-25T11:14:39.594Z,4.37
2023-02-25T11:17:18.888Z,4.50
2023-02-25T11:22:25.870Z,3.83
2023-02-25T11:25:01.896Z,3.80
2023-02-25T11:27:39.811Z,4.90
2023-02-25T11:30:25.328Z,4.15
2023-02-25T11:38:29.379Z,5.45
2023-02-25T11:40:57.542Z,3.42
2023-02-25T11:43:35.360Z,3.40
2023-02-25T11:46:23.608Z,3.52
2023-02-25T11:49:16.062Z,2.20
2023-02-25T11:51:59.277Z,2.20
2023-02-25T11:54:47.631Z,2.35
2023-02-25T12:03:02.033Z,4.55
2023-02-25T12:05:50.524Z,6.75
2023-02-25T12:08:49.760Z,4.60
2023-02-25T12:11:44.289Z,5.00
2023-02-25T12:14:44.534Z,5.08
2023-02-25T12:20:05.280Z,3.45
2023-02-25T12:22:53.089Z,3.75
2023-02-25T12:25:33.253Z,2.00
2023-02-25T12:28:26.106Z,2.45
2023-02-25T12:31:14.459Z,2.42
2023-02-25T12:34:22.963Z,3.42
2023-02-25T12:43:24.479Z,5.58
2023-02-25T12:46:26.445Z,7.00
2023-02-25T12:49:14.886Z,3.80
2023-02-25T12:51:56.848Z,3.85
2023-02-25T12:55:08.300Z,3.50
2023-02-25T12:57:58.780Z,2.40
2023-02-25T13:03:28.394Z,2.98
2023-02-25T13:06:23.220Z,3.90
2023-02-25T13:12:30.591Z,6.08
2023-02-25T13:15:06.946Z,3.10
2023-02-25T13:18:00.947Z,3.12
2023-02-25T13:20:52.823Z,3.65
2023-02-25T13:24:04.376Z,6.00
2023-02-25T13:29:27.782Z,4.12
2023-02-25T13:32:26.400Z,5.00
2023-02-25T13:35:17.763Z,5.00
2023-02-25T13:40:48.051Z,2.87
2023-02-25T13:43:42.378Z,4.03
2023-02-25T13:46:37.489Z,5.33
2023-02-25T13:49:40.009Z,4.10
2023-02-25T13:52:45.147Z,5.40
2023-02-25T13:55:30.664Z,3.83
2023-02-25T14:01:53.935Z,3.70
2023-02-25T14:05:02.323Z,3.58
2023-02-25T14:11:01.630Z,5.28
2023-02-25T14:16:20.616Z,6.90
2023-02-25T14:19:10.904Z,4.85
2023-02-25T14:22:08.622Z,5.22
2023-02-25T14:25:00.276Z,2.80
2023-02-25T14:27:54.352Z,4.33
2023-02-25T14:33:35.185Z,4.62
2023-02-25T14:36:37.340Z,4.40
2023-02-25T14:39:43.932Z,4.15
2023-02-25T14:42:41.213Z,2.30
2023-02-25T14:45:14.883Z,2.50
2023-02-25T14:51:01.434Z,5.78
2023-02-25T14:53:51.559Z,3.52
2023-02-25T14:56:58.552Z,3.47
2023-02-25T14:59:41.292Z,4.05
2023-02-25T15:02:40.635Z,3.33
2023-02-25T15:08:20.280Z,12.33
2023-02-25T15:14:25.859Z,5.97
2023-02-25T15:19:40.280Z,10.90
2023-02-25T15:22:24.704Z,18.10
2023-02-25T15:25:15.046Z,26.12
2023-02-25T15:30:23.414Z,7.87
2023-02-25T15:33:08.650Z,9.45
2023-02-25T15:35:41.911Z,13.13
2023-02-25T15:38:24.005Z,6.25
2023-02-25T15:43:30.684Z,5.17
2023-02-25T15:46:13.320Z,4.47
2023-02-25T15:48:42.654Z,18.60
2023-02-25T15:53:45.008Z,23.07
2023-02-25T16:01:42.265Z,11.68
2023-02-25T16:04:42.834Z,11.50
2023-02-25T16:07:15.326Z,10.90
2023-02-25T16:12:16.946Z,24.43
2023-02-25T16:14:45.779Z,21.17
2023-02-25T16:22:33.268Z,37.95
2023-02-25T16:28:08.400Z,25.92
2023-02-25T16:30:44.652Z,28.57
2023-02-25T16:39:06.156Z,27.58
2023-02-25T16:41:38.658Z,25.08
2023-02-25T16:44:04.426Z,24.40
2023-02-25T16:46:41.018Z,30.15
2023-02-25T16:49:13.289Z,32.10
2023-02-25T16:54:14.385Z,27.65
2023-02-25T16:56:45.800Z,29.35
2023-02-25T17:01:56.383Z,27.82
2023-02-25T17:04:36.774Z,23.92
2023-02-25T17:07:17.156Z,22.40
2023-02-25T17:09:49.244Z,22.02
2023-02-25T17:14:50.856Z,24.12
2023-02-25T17:17:38.186Z,24.07
2023-02-25T17:22:54.086Z,20.75
2023-02-25T17:25:32.128Z,21.82
2023-02-25T17:27:59.762Z,17.85
2023-02-25T17:30:37.210Z,11.48
2023-02-25T17:35:33.274Z,16.82
2023-02-25T17:38:02.251Z,19.40
2023-02-25T17:40:30.106Z,23.15
2023-02-25T17:43:39.366Z,19.73
2023-02-25T17:46:32.749Z,24.37
2023-02-25T17:49:23.019Z,26.50
2023-02-25T17:52:05.343Z,28.07
2023-02-25T17:54:36.672Z,25.68
2023-02-25T17:57:18.040Z,12.58
2023-02-25T18:02:46.190Z,29.57
2023-02-25T18:07:47.088Z,33.80
2023-02-25T18:10:34.988Z,20.82
2023-02-25T18:13:05.032Z,17.23
2023-02-25T18:15:33.794Z,16.27
2023-02-25T18:18:05.379Z,16.12
2023-02-25T18:20:43.476Z,21.45
2023-02-25T18:23:27.191Z,18.52
2023-02-25T18:26:24.007Z,12.53
2023-02-25T18:28:53.174Z,10.63
2023-02-25T18:31:21.826Z,10.65
2023-02-25T18:33:50.144Z,10.98
2023-02-25T18:36:27.536Z,11.75
2023-02-25T18:38:59.821Z,13.10
2023-02-25T18:43:54.186Z,13.62
2023-02-25T18:46:22.369Z,17.42
2023-02-25T18:48:49.258Z,17.25
2023-02-25T18:51:17.697Z,18.35
2023-02-25T18:53:46.271Z,18.42
2023-02-25T18:56:17.772Z,20.23
2023-02-25T18:58:48.681Z,28.52
2023-02-25T19:01:26.498Z,32.55
2023-02-25T19:03:56.353Z,42.80
2023-02-25T19:06:27.534Z,23.92
2023-02-25T19:08:55.373Z,22.80
2023-02-25T19:11:31.037Z,16.75
2023-02-25T19:16:26.079Z,6.78
2023-02-25T19:18:53.995Z,14.45
2023-02-25T19:21:22.257Z,14.13
2023-02-25T19:23:53.437Z,20.95
2023-02-25T19:26:21.926Z,12.43
2023-02-25T20:00:18.019Z,45.43
2023-02-25T20:31:18.860Z,25.05
2023-02-25T20:33:53.799Z,26.45
2023-02-25T20:36:28.953Z,26.10
2023-02-25T20:42:41.180Z,42.48
2023-02-25T20:45:14.949Z,36.58
2023-02-25T20:47:43.267Z,32.58
2023-02-25T20:50:17.880Z,25.45
2023-02-25T20:52:45.839Z,28.73
2023-02-25T20:55:13.781Z,24.80
2023-02-25T20:57:43.408Z,24.77
2023-02-25T21:00:17.272Z,23.25
2023-02-25T21:02:49.164Z,25.45
2023-02-25T21:05:18.805Z,26.60
2023-02-25T21:07:46.622Z,26.02
2023-02-25T21:10:20.937Z,22.17
2023-02-25T21:14:00.879Z,21.65
2023-02-25T21:15:51.347Z,12.00
2023-02-25T21:18:25.471Z,10.72
2023-02-25T21:21:07.229Z,11.48
2023-02-25T21:23:36.578Z,14.78
2023-02-25T21:26:06.630Z,15.90
2023-02-25T21:28:35.524Z,16.87
2023-02-25T21:31:08.408Z,17.73
2023-02-25T21:33:37.600Z,17.65
2023-02-25T21:36:07.719Z,28.85
2023-02-25T21:38:36.818Z,25.37
2023-02-25T21:41:10.097Z,24.82
2023-02-25T21:43:38.927Z,29.05
2023-02-25T21:46:12.164Z,21.73
2023-02-25T21:48:42.286Z,18.85
2023-02-25T21:51:17.682Z,22.95
2023-02-25T21:53:45.584Z,17.52
2023-02-25T21:56:16.746Z,20.72
2023-02-25T21:58:45.636Z,14.78
2023-02-25T22:01:21.048Z,14.15
2023-02-25T22:03:49.411Z,17.45
2023-02-25T22:06:18.576Z,19.32
2023-02-25T22:08:46.460Z,19.25
2023-02-25T22:11:18.995Z,20.48
2023-02-25T22:13:47.820Z,25.30
2023-02-25T22:16:20.805Z,22.67
2023-02-25T22:18:49.829Z,21.12
2023-02-25T22:21:21.543Z,21.05
2023-02-25T22:23:51.600Z,14.45
2023-02-25T22:26:22.955Z,15.35
2023-02-25T22:28:54.374Z,23.62
2023-02-25T22:31:22.364Z,23.55
2023-02-25T22:33:50.436Z,25.95
2023-02-25T22:36:19.615Z,26.05
2023-02-25T22:38:49.673Z,25.92
2023-02-25T22:41:27.735Z,27.13
2023-02-25T22:43:57.942Z,25.25
2023-02-25T22:46:33.150Z,24.35
2023-02-25T22:49:00.843Z,23.98
2023-02-25T22:51:35.716Z,22.93
2023-02-25T22:54:04.563Z,20.15
2023-02-25T22:56:32.648Z,16.52
2023-02-25T22:59:01.158Z,13.83
2023-02-25T23:01:29.033Z,10.60
2023-02-25T23:03:57.126Z,9.00
2023-02-25T23:06:42.225Z,8.83
2023-02-25T23:08:59.114Z,8.38
2023-02-25T23:11:31.180Z,9.08
2023-02-25T23:14:00.981Z,7.37
2023-02-25T23:16:38.667Z,7.25
2023-02-25T23:19:09.361Z,7.92
2023-02-25T23:21:40.620Z,6.95
2023-02-25T23:24:12.341Z,5.42
2023-02-25T23:26:41.877Z,6.62
2023-02-25T23:29:11.982Z,8.98
2023-02-25T23:31:47.237Z,5.62
2023-02-25T23:36:46.798Z,5.28
2023-02-25T23:39:15.908Z,6.28
2023-02-25T23:41:43.926Z,5.20
2023-02-25T23:44:13.489Z,5.17
2023-02-25T23:46:42.630Z,4.65
2023-02-25T23:49:13.581Z,6.20
2023-02-25T23:51:46.439Z,6.87
2023-02-25T23:54:17.512Z,4.08
2023-02-25T23:56:45.646Z,3.40
2023-02-25T23:59:13.889Z,2.90
